Havre City County Airport
KHVR : now visible

Airfield :











YOU CAN JOIN US ON...

 
LOGIN :

Register | Disclaimer

   EN    FR    IT 

 









Legend :    VFR   Marginal VFR   IFR   Intensive IFR   Very Intensive IFR
Visi :
Ceiling :
>= 8 km
>= 3000ft
5 to 8 km
1000 to 3000 ft
1500m to 5 km
500 to 1000 ft
800 to 1500m
200 to 500 ft
< 800m
< 200 ft
Symbols :   Thunderstorms  Fog  Heavy snow  Heavy precipitations  Wind > 20 kt






- Airport Elevation : 2591 ft


KHVR - Havre City County

CURRENT METAR :
  • 211753Z AUTO 24009KT 10SM CLR 19/06 A3000 RMK AO2 SLP153 T01940061 10194 20067 58004

EXPIRED METARs :
  • 211653Z AUTO 24013KT 10SM CLR 18/06 A3001 RMK AO2 SLP157 T01780061
  • 211553Z AUTO 25008KT 10SM CLR 16/07 A3002 RMK AO2 SLP160 T01560067

TAF KHVR
Valid from the 21 at 18:00 until the 22 at 18:00 UTC


211740Z 2118/2218 23010KT P6SM SKC
FM212100 24008G18KT P6SM FEW250
FM220300 22008KT P6SM FEW150 SCT250
FM220600 VRB06KT P6SM SCT150 BKN250
KZLC FIR / North America



MET'MAP, your aeronautical weather chart ! - Copyright ORBIFLY December 2007 - Disclaimer

ORBIFLY MET'MAP TEAM :

Programming & Development : Alexandra Zaïnal
Concept & original design : Baudouin d'Aumeries
Assistance for programming : Marc-Olivier Méhu
Technical & hardware support : Manuel Goepfert

Contact : metmap@orbifly.com




SOURCES & CREDITS :

   NOAA       Earth
Advisory